createdAt,value
2023-02-11T00:02:47.451Z,22.40
2023-02-11T00:07:49.504Z,21.65
2023-02-11T00:12:51.140Z,21.15
2023-02-11T00:17:52.731Z,22.90
2023-02-11T00:22:54.337Z,18.42
2023-02-11T00:27:55.942Z,18.58
2023-02-11T00:32:57.730Z,23.75
2023-02-11T00:38:00.380Z,21.40
2023-02-11T00:43:01.983Z,17.45
2023-02-11T00:48:03.684Z,23.05
2023-02-11T00:53:05.318Z,23.45
2023-02-11T00:58:06.930Z,24.80
2023-02-11T01:03:08.585Z,21.23
2023-02-11T01:08:10.304Z,24.42
2023-02-11T01:13:12.261Z,22.52
2023-02-11T01:18:13.888Z,22.00
2023-02-11T01:23:16.577Z,22.23
2023-02-11T01:28:24.790Z,19.67
2023-02-11T01:33:27.096Z,18.27
2023-02-11T01:38:28.961Z,20.58
2023-02-11T01:43:41.811Z,19.63
2023-02-11T01:48:47.678Z,19.42
2023-02-11T01:54:08.888Z,20.92
2023-02-11T01:59:17.312Z,20.83
2023-02-11T02:04:20.413Z,21.17
2023-02-11T02:09:31.812Z,21.98
2023-02-11T02:14:33.550Z,19.55
2023-02-11T02:19:59.848Z,19.00
2023-02-11T02:25:29.596Z,23.02
2023-02-11T02:30:56.094Z,22.67
2023-02-11T02:36:29.957Z,21.92
2023-02-11T02:41:34.385Z,23.40
2023-02-11T02:46:36.828Z,23.65
2023-02-11T02:51:53.808Z,21.42
2023-02-11T02:57:07.502Z,21.85
2023-02-11T03:09:12.950Z,18.33
2023-02-11T03:14:17.241Z,19.13
2023-02-11T03:19:22.808Z,19.77
2023-02-11T03:24:30.693Z,19.35
2023-02-11T03:30:04.426Z,19.38
2023-02-11T03:35:12.177Z,20.52
2023-02-11T03:40:19.121Z,20.92
2023-02-11T03:45:23.771Z,22.52
2023-02-11T03:50:27.319Z,21.50
2023-02-11T03:55:31.191Z,19.85
2023-02-11T04:00:36.901Z,21.45
2023-02-11T04:05:39.087Z,20.00
2023-02-11T04:10:40.800Z,23.90
2023-02-11T04:15:42.477Z,22.40
2023-02-11T04:20:44.076Z,22.05
2023-02-11T04:25:45.703Z,20.17
2023-02-11T04:30:50.589Z,25.02
2023-02-11T04:35:52.522Z,22.15
2023-02-11T04:40:54.294Z,22.23
2023-02-11T04:45:59.381Z,20.80
2023-02-11T04:51:02.660Z,22.25
2023-02-11T04:56:04.516Z,21.02
2023-02-11T05:01:11.071Z,23.88
2023-02-11T05:06:12.808Z,26.13
2023-02-11T05:11:18.090Z,23.27
2023-02-11T05:16:19.866Z,23.88
2023-02-11T05:21:21.493Z,24.13
2023-02-11T05:26:23.113Z,24.88
2023-02-11T05:31:24.725Z,27.38
2023-02-11T05:36:26.332Z,23.17
2023-02-11T05:41:27.984Z,23.25
2023-02-11T05:46:29.675Z,24.65
2023-02-11T05:51:31.301Z,27.90
2023-02-11T05:56:33.039Z,25.52
2023-02-11T06:01:34.718Z,23.52
2023-02-11T06:06:36.609Z,24.02
2023-02-11T06:11:38.461Z,26.02
2023-02-11T06:16:40.164Z,30.13
2023-02-11T06:21:44.271Z,24.80
2023-02-11T06:26:46.179Z,30.98
2023-02-11T06:31:47.830Z,23.23
2023-02-11T06:36:49.490Z,26.48
2023-02-11T06:41:51.087Z,24.15
2023-02-11T06:46:52.771Z,23.02
2023-02-11T06:51:54.474Z,22.92
2023-02-11T06:56:56.115Z,24.92
2023-02-11T07:01:57.852Z,26.80
2023-02-11T07:06:59.487Z,31.05
2023-02-11T07:12:01.107Z,27.13
2023-02-11T07:17:04.836Z,27.55
2023-02-11T07:22:06.465Z,33.38
2023-02-11T07:27:08.129Z,27.58
2023-02-11T07:32:10.432Z,28.70
2023-02-11T07:37:12.115Z,30.38
2023-02-11T07:42:13.758Z,27.10
2023-02-11T07:47:15.697Z,29.52
2023-02-11T07:52:17.338Z,26.80
2023-02-11T07:57:18.929Z,28.17
2023-02-11T08:02:20.620Z,32.90
2023-02-11T08:07:22.376Z,29.08
2023-02-11T08:12:24.002Z,25.08
2023-02-11T08:17:25.634Z,25.33
2023-02-11T08:22:27.303Z,28.33
2023-02-11T08:27:29.035Z,23.85
2023-02-11T08:32:30.678Z,24.63
2023-02-11T08:37:33.226Z,24.02
2023-02-11T08:42:34.856Z,30.98
2023-02-11T08:47:37.174Z,29.15
2023-02-11T08:52:38.782Z,26.35
2023-02-11T08:57:40.424Z,29.55
2023-02-11T09:02:42.128Z,26.58
2023-02-11T09:07:43.785Z,22.23
2023-02-11T09:12:45.381Z,25.40
2023-02-11T09:17:46.995Z,24.48
2023-02-11T09:22:48.687Z,21.73
2023-02-11T09:27:51.451Z,24.55
2023-02-11T09:32:53.080Z,24.50
2023-02-11T09:37:54.842Z,25.60
2023-02-11T09:43:22.731Z,24.52
2023-02-11T09:48:24.394Z,24.70
2023-02-11T09:53:34.987Z,26.85
2023-02-11T09:58:39.943Z,23.80
2023-02-11T10:04:01.751Z,31.00
2023-02-11T10:09:18.494Z,25.55
2023-02-11T10:14:47.876Z,26.00
2023-02-11T10:20:08.063Z,23.90
2023-02-11T10:25:29.798Z,25.40
2023-02-11T10:30:36.262Z,23.60
2023-02-11T10:35:38.015Z,25.33
2023-02-11T10:40:39.755Z,24.35
2023-02-11T10:45:48.699Z,23.65
2023-02-11T10:50:50.646Z,22.60
2023-02-11T10:55:57.445Z,27.58
2023-02-11T11:01:00.271Z,24.33
2023-02-11T11:06:05.382Z,23.92
2023-02-11T11:11:10.688Z,23.60
2023-02-11T11:16:12.327Z,25.85
2023-02-11T11:21:18.866Z,25.25
2023-02-11T11:26:21.458Z,22.85
2023-02-11T11:31:37.699Z,24.25
2023-02-11T11:36:40.179Z,26.83
2023-02-11T11:41:51.650Z,23.27
2023-02-11T11:47:05.174Z,21.60
2023-02-11T11:52:31.644Z,22.10
2023-02-11T11:57:37.834Z,22.77
2023-02-11T12:03:05.034Z,23.23
2023-02-11T12:08:36.223Z,22.45
2023-02-11T12:13:55.737Z,22.05
2023-02-11T12:19:17.425Z,21.17
2023-02-11T12:24:37.393Z,21.13
2023-02-11T12:29:41.757Z,22.33
2023-02-11T12:35:11.460Z,24.10
2023-02-11T12:40:44.116Z,24.45
2023-02-11T12:46:26.686Z,20.40
2023-02-11T12:52:17.273Z,22.15
2023-02-11T12:57:26.550Z,22.17
2023-02-11T13:02:33.978Z,22.58
2023-02-11T13:07:41.783Z,22.88
2023-02-11T13:13:05.402Z,22.85
2023-02-11T13:18:19.197Z,21.27
2023-02-11T13:23:26.072Z,21.63
2023-02-11T13:28:42.695Z,22.35
2023-02-11T13:33:45.842Z,21.52
2023-02-11T13:38:57.927Z,19.73
2023-02-11T13:44:01.673Z,22.50
2023-02-11T13:49:03.467Z,22.42
2023-02-11T13:54:06.347Z,22.02
2023-02-11T13:59:32.998Z,23.45
2023-02-11T14:05:06.909Z,21.52
2023-02-11T14:10:42.249Z,21.15
2023-02-11T14:15:46.490Z,21.27
2023-02-11T14:20:49.152Z,27.50
2023-02-11T14:26:00.578Z,20.20
2023-02-11T14:31:12.490Z,19.90
2023-02-11T14:36:47.525Z,20.80
2023-02-11T14:41:51.176Z,21.88
2023-02-11T14:46:55.000Z,21.17
2023-02-11T14:52:03.918Z,26.48
2023-02-11T14:57:17.380Z,26.90
2023-02-11T15:02:23.991Z,21.90
2023-02-11T15:07:25.744Z,25.67
2023-02-11T15:12:28.539Z,21.13
2023-02-11T15:17:32.014Z,22.88
2023-02-11T15:22:36.958Z,21.23
2023-02-11T15:27:43.961Z,22.27
2023-02-11T15:32:45.809Z,18.50
2023-02-11T15:37:50.190Z,18.73
2023-02-11T15:43:01.706Z,19.48
2023-02-11T15:48:16.194Z,20.80
2023-02-11T15:53:20.509Z,19.88
2023-02-11T15:58:23.769Z,23.25
2023-02-11T16:03:33.096Z,21.85
2023-02-11T16:08:35.534Z,23.20
2023-02-11T16:13:46.459Z,22.02
2023-02-11T16:19:03.368Z,22.60
2023-02-11T16:24:08.236Z,22.52
2023-02-11T16:29:14.493Z,22.25
2023-02-11T16:34:20.374Z,27.63
2023-02-11T16:39:22.619Z,25.17
2023-02-11T16:44:24.301Z,23.75
2023-02-11T16:49:31.594Z,22.88
2023-02-11T16:54:33.906Z,25.20
2023-02-11T16:59:35.521Z,23.33
2023-02-11T17:04:37.203Z,25.80
2023-02-11T17:09:39.016Z,25.52
2023-02-11T17:14:40.803Z,25.05
2023-02-11T17:19:42.402Z,26.42
2023-02-11T17:24:44.031Z,22.45
2023-02-11T17:29:45.625Z,24.30
2023-02-11T17:34:47.235Z,23.45
2023-02-11T17:39:49.213Z,23.58
2023-02-11T17:44:50.875Z,25.20
2023-02-11T17:49:52.501Z,21.13
2023-02-11T17:54:55.331Z,21.85
2023-02-11T17:59:57.170Z,22.33
2023-02-11T18:04:59.011Z,22.73
2023-02-11T18:10:00.728Z,23.58
2023-02-11T18:15:02.534Z,23.50
2023-02-11T18:20:05.013Z,21.23
2023-02-11T18:25:08.207Z,21.55
2023-02-11T18:30:15.722Z,23.13
2023-02-11T18:35:17.423Z,21.92
2023-02-11T18:40:19.146Z,22.90
2023-02-11T18:45:20.918Z,23.58
2023-02-11T18:50:22.718Z,23.77
2023-02-11T18:55:25.959Z,21.90
2023-02-11T19:00:27.730Z,22.00
2023-02-11T19:05:33.337Z,22.45
2023-02-11T19:10:35.130Z,23.75
2023-02-11T19:15:41.809Z,22.17
2023-02-11T19:20:44.340Z,20.92
2023-02-11T19:25:47.526Z,20.45
2023-02-11T19:30:49.250Z,19.55
2023-02-11T19:35:51.172Z,17.30
2023-02-11T19:40:56.985Z,17.25
2023-02-11T19:45:58.681Z,17.45
2023-02-11T19:51:10.863Z,17.27
2023-02-11T19:56:15.570Z,19.50
2023-02-11T20:01:20.539Z,17.70
2023-02-11T20:06:25.296Z,16.35
2023-02-11T20:11:30.051Z,16.50
2023-02-11T20:16:46.995Z,16.02
2023-02-11T20:21:53.386Z,14.27
2023-02-11T20:26:57.820Z,15.57
2023-02-11T20:31:59.813Z,14.50
2023-02-11T20:37:04.113Z,14.00
2023-02-11T20:42:05.841Z,14.13
2023-02-11T20:47:07.468Z,14.63
2023-02-11T20:52:09.088Z,18.50
2023-02-11T20:57:10.692Z,15.05
2023-02-11T21:02:13.447Z,16.58
2023-02-11T21:07:15.099Z,15.48
2023-02-11T21:12:16.736Z,17.45
2023-02-11T21:17:18.513Z,16.95
2023-02-11T21:22:20.150Z,16.73
2023-02-11T21:27:21.962Z,18.30
2023-02-11T21:32:23.553Z,17.73
2023-02-11T21:37:25.209Z,18.65
2023-02-11T21:42:26.836Z,16.85
2023-02-11T21:47:28.478Z,16.23
2023-02-11T21:52:30.073Z,14.45
2023-02-11T21:57:31.788Z,15.63
2023-02-11T22:02:33.840Z,16.35
2023-02-11T22:07:36.499Z,16.40
2023-02-11T22:12:38.209Z,19.92
2023-02-11T22:17:39.880Z,21.85
2023-02-11T22:22:41.481Z,21.45
2023-02-11T22:27:43.329Z,24.15
2023-02-11T22:32:45.023Z,24.63
2023-02-11T22:37:46.679Z,24.55
2023-02-11T22:42:48.293Z,24.60
2023-02-11T22:47:49.892Z,24.73
2023-02-11T22:52:51.499Z,21.95
2023-02-11T22:57:53.893Z,23.48
2023-02-11T23:02:56.185Z,20.95
2023-02-11T23:07:57.891Z,22.98
2023-02-11T23:12:59.499Z,28.35
2023-02-11T23:18:01.137Z,27.73
2023-02-11T23:23:03.902Z,26.30
2023-02-11T23:28:05.529Z,28.10
2023-02-11T23:33:07.185Z,27.35
2023-02-11T23:38:08.829Z,32.08
2023-02-11T23:43:10.581Z,30.38
2023-02-11T23:48:12.193Z,33.25
2023-02-11T23:53:14.066Z,32.95
2023-02-11T23:58:15.829Z,32.58
